createdAt,value
2018-11-27T00:00:36.442Z,3.70
2018-11-27T00:03:07.050Z,3.77
2018-11-27T00:05:36.655Z,3.75
2018-11-27T00:08:05.484Z,3.77
2018-11-27T00:10:35.730Z,3.66
2018-11-27T00:13:04.379Z,3.72
2018-11-27T00:15:32.915Z,3.72
2018-11-27T00:18:01.582Z,3.59
2018-11-27T00:20:30.516Z,3.71
2018-11-27T00:22:59.243Z,3.47
2018-11-27T00:25:27.846Z,3.69
2018-11-27T00:27:56.499Z,3.65
2018-11-27T00:30:25.606Z,3.61
2018-11-27T00:32:54.190Z,3.35
2018-11-27T00:35:23.326Z,3.72
2018-11-27T00:37:51.873Z,3.65
2018-11-27T00:40:24.316Z,3.70
2018-11-27T00:42:52.891Z,3.46
2018-11-27T00:45:22.388Z,3.54
2018-11-27T00:47:51.565Z,3.46
2018-11-27T00:50:21.494Z,3.45
2018-11-27T00:52:50.045Z,3.43
2018-11-27T00:55:19.472Z,3.36
2018-11-27T00:57:49.403Z,3.25
2018-11-27T01:00:20.216Z,3.10
2018-11-27T01:02:48.867Z,3.21
2018-11-27T01:05:20.935Z,3.21
2018-11-27T01:07:49.566Z,3.22
2018-11-27T01:10:21.362Z,3.28
2018-11-27T01:12:50.079Z,3.09
2018-11-27T01:15:18.687Z,3.29
2018-11-27T01:18:03.131Z,3.23
2018-11-27T01:20:31.768Z,3.25
2018-11-27T01:23:00.356Z,3.16
2018-11-27T01:25:29.059Z,3.17
2018-11-27T01:27:57.612Z,3.05
2018-11-27T01:30:26.205Z,3.13
2018-11-27T01:32:54.805Z,3.18
2018-11-27T01:35:24.318Z,3.15
2018-11-27T01:37:55.072Z,3.08
2018-11-27T01:40:25.336Z,3.03
2018-11-27T01:42:54.790Z,3.22
2018-11-27T01:45:24.457Z,2.99
2018-11-27T01:47:53.198Z,3.10
2018-11-27T01:50:22.044Z,2.99
2018-11-27T01:52:50.918Z,2.90
2018-11-27T01:55:21.564Z,3.09
2018-11-27T01:57:50.103Z,2.99
2018-11-27T02:00:28.947Z,2.98
2018-11-27T02:02:58.351Z,2.93
2018-11-27T02:05:27.732Z,3.02
2018-11-27T02:07:56.386Z,3.02
2018-11-27T02:10:25.026Z,3.07
2018-11-27T02:12:54.763Z,3.11
2018-11-27T02:15:25.533Z,3.05
2018-11-27T02:17:55.115Z,3.06
2018-11-27T02:20:23.634Z,3.06
2018-11-27T02:22:52.248Z,3.06
2018-11-27T02:25:28.827Z,3.13
2018-11-27T02:27:57.616Z,3.13
2018-11-27T02:30:27.253Z,3.12
2018-11-27T02:32:55.842Z,3.11
2018-11-27T02:35:25.538Z,3.14
2018-11-27T02:37:55.971Z,3.14
2018-11-27T02:40:24.574Z,3.14
2018-11-27T02:42:53.177Z,3.11
2018-11-27T02:45:22.679Z,3.09
2018-11-27T02:47:52.103Z,3.06
2018-11-27T02:50:22.638Z,3.05
2018-11-27T02:52:51.216Z,3.09
2018-11-27T02:55:22.948Z,3.13
2018-11-27T02:57:51.553Z,3.08
2018-11-27T03:00:28.848Z,3.08
2018-11-27T03:02:57.570Z,3.10
2018-11-27T03:05:31.254Z,3.07
2018-11-27T03:07:59.829Z,3.12
2018-11-27T03:10:28.541Z,3.08
2018-11-27T03:12:57.081Z,3.05
2018-11-27T03:15:25.624Z,3.15
2018-11-27T03:17:54.493Z,3.07
2018-11-27T03:20:23.526Z,3.11
2018-11-27T03:22:52.196Z,3.00
2018-11-27T03:25:21.867Z,3.19
2018-11-27T03:27:51.588Z,3.08
2018-11-27T03:30:22.018Z,3.15
2018-11-27T03:32:50.670Z,3.12
2018-11-27T03:35:20.537Z,3.06
2018-11-27T03:37:49.658Z,3.03
2018-11-27T03:40:19.361Z,2.98
2018-11-27T03:42:47.951Z,3.04
2018-11-27T03:45:17.194Z,3.13
2018-11-27T03:47:45.964Z,3.03
2018-11-27T03:50:19.036Z,2.99
2018-11-27T03:52:47.619Z,3.00
2018-11-27T03:55:16.345Z,2.96
2018-11-27T03:57:44.988Z,2.89
2018-11-27T04:00:18.466Z,3.00
2018-11-27T04:02:51.430Z,3.06
2018-11-27T04:05:20.057Z,3.03
2018-11-27T04:07:48.578Z,2.99
2018-11-27T04:10:18.555Z,3.02
2018-11-27T04:12:47.120Z,3.05
2018-11-27T04:15:15.725Z,2.97
2018-11-27T04:17:44.304Z,3.17
2018-11-27T04:20:13.794Z,3.00
2018-11-27T04:22:43.197Z,3.06
2018-11-27T04:25:14.026Z,2.98
2018-11-27T04:27:42.811Z,3.00
2018-11-27T04:30:14.351Z,2.98
2018-11-27T04:32:43.223Z,3.04
2018-11-27T04:35:13.096Z,2.98
2018-11-27T04:37:41.972Z,3.17
2018-11-27T04:40:13.891Z,3.01
2018-11-27T04:42:42.556Z,3.09
2018-11-27T04:45:13.501Z,3.15
2018-11-27T04:47:42.030Z,3.02
2018-11-27T04:50:12.000Z,3.20
2018-11-27T04:52:40.771Z,2.98
2018-11-27T04:55:10.919Z,2.95
2018-11-27T04:57:39.567Z,2.95
2018-11-27T05:00:23.825Z,2.98
2018-11-27T05:02:53.170Z,2.93
2018-11-27T05:05:21.840Z,2.88
2018-11-27T05:07:50.495Z,2.91
2018-11-27T05:10:21.035Z,2.77
2018-11-27T05:12:49.712Z,2.92
2018-11-27T05:15:21.042Z,3.04
2018-11-27T05:17:51.835Z,3.03
2018-11-27T05:20:20.386Z,3.03
2018-11-27T05:22:48.954Z,2.99
2018-11-27T05:25:18.603Z,2.98
2018-11-27T05:27:49.015Z,2.95
2018-11-27T05:30:19.676Z,3.01
2018-11-27T05:32:48.475Z,2.95
2018-11-27T05:35:18.218Z,3.10
2018-11-27T05:37:47.945Z,3.06
2018-11-27T05:40:18.851Z,2.93
2018-11-27T05:42:48.306Z,2.96
2018-11-27T05:45:18.181Z,2.99
2018-11-27T05:47:46.753Z,2.92
2018-11-27T05:50:16.579Z,2.86
2018-11-27T05:52:45.127Z,2.89
2018-11-27T05:55:14.967Z,3.02
2018-11-27T05:57:44.618Z,3.09
2018-11-27T06:00:15.775Z,3.07
2018-11-27T06:02:44.594Z,3.12
2018-11-27T06:05:16.795Z,2.90
2018-11-27T06:07:45.528Z,2.95
2018-11-27T06:10:16.661Z,2.89
2018-11-27T06:12:45.452Z,2.86
2018-11-27T06:15:19.554Z,3.08
2018-11-27T06:17:50.186Z,3.09
2018-11-27T06:20:20.835Z,3.10
2018-11-27T06:22:49.862Z,3.06
2018-11-27T06:25:20.718Z,2.97
2018-11-27T06:28:05.894Z,2.94
2018-11-27T06:30:35.694Z,3.04
2018-11-27T06:33:04.678Z,3.00
2018-11-27T06:35:35.269Z,3.00
2018-11-27T06:38:05.635Z,3.07
2018-11-27T06:40:34.813Z,3.20
2018-11-27T06:43:03.775Z,3.30
2018-11-27T06:45:32.739Z,3.32
2018-11-27T06:48:01.647Z,3.17
2018-11-27T06:50:30.633Z,3.19
2018-11-27T06:52:59.521Z,3.31
2018-11-27T06:55:28.728Z,3.22
2018-11-27T06:57:57.910Z,3.05
2018-11-27T07:00:28.204Z,3.12
2018-11-27T07:02:58.054Z,3.00
2018-11-27T07:05:26.871Z,3.20
2018-11-27T07:07:55.592Z,3.18
2018-11-27T07:10:28.802Z,3.19
2018-11-27T07:13:02.255Z,3.29
2018-11-27T07:15:31.038Z,3.35
2018-11-27T07:17:59.623Z,3.26
2018-11-27T07:20:28.178Z,3.22
2018-11-27T07:22:56.777Z,3.17
2018-11-27T07:25:25.412Z,3.17
2018-11-27T07:27:54.287Z,3.17
2018-11-27T07:30:24.119Z,3.06
2018-11-27T07:32:52.827Z,3.20
2018-11-27T07:35:21.881Z,3.16
2018-11-27T07:37:50.738Z,3.25
2018-11-27T07:40:25.738Z,3.20
2018-11-27T07:42:55.636Z,3.30
2018-11-27T07:45:24.906Z,3.22
2018-11-27T07:47:54.062Z,3.38
2018-11-27T07:50:22.661Z,3.27
2018-11-27T07:52:51.312Z,3.28
2018-11-27T07:55:21.217Z,3.18
2018-11-27T07:57:50.760Z,3.13
2018-11-27T08:00:20.885Z,3.03
2018-11-27T08:02:52.595Z,3.23
2018-11-27T08:05:24.355Z,3.23
2018-11-27T08:07:54.112Z,3.24
2018-11-27T08:10:23.791Z,3.52
2018-11-27T08:12:52.394Z,3.33
2018-11-27T08:15:22.422Z,3.25
2018-11-27T08:17:51.033Z,3.23
2018-11-27T08:20:21.014Z,3.33
2018-11-27T08:22:49.631Z,3.32
2018-11-27T08:25:18.206Z,3.32
2018-11-27T08:27:46.739Z,3.05
2018-11-27T08:30:17.398Z,3.54
2018-11-27T08:32:46.201Z,3.57
2018-11-27T08:35:16.949Z,3.29
2018-11-27T08:37:46.290Z,3.49
2018-11-27T08:40:15.903Z,3.19
2018-11-27T08:42:44.444Z,3.18
2018-11-27T08:45:18.146Z,3.35
2018-11-27T08:47:47.451Z,3.33
2018-11-27T08:50:17.291Z,3.31
2018-11-27T08:52:48.946Z,3.30
2018-11-27T08:55:22.879Z,3.25
2018-11-27T08:57:51.794Z,3.22
2018-11-27T09:00:21.568Z,3.30
2018-11-27T09:02:50.108Z,3.35
2018-11-27T09:05:19.552Z,3.24
2018-11-27T09:07:48.731Z,3.28
2018-11-27T09:10:22.759Z,3.25
2018-11-27T09:12:51.452Z,3.52
2018-11-27T09:15:22.122Z,3.36
2018-11-27T09:17:57.283Z,3.31
2018-11-27T09:20:25.897Z,3.39
2018-11-27T09:22:54.440Z,3.43
2018-11-27T09:25:23.030Z,3.54
2018-11-27T09:27:52.091Z,3.45
2018-11-27T09:30:22.271Z,3.45
2018-11-27T09:32:51.128Z,3.21
2018-11-27T09:35:19.997Z,3.33
2018-11-27T09:37:48.762Z,3.46
2018-11-27T09:40:18.956Z,3.63
2018-11-27T09:42:47.676Z,3.54
2018-11-27T09:45:17.515Z,3.52
2018-11-27T09:47:47.180Z,3.41
2018-11-27T09:50:17.015Z,3.42
2018-11-27T09:52:46.182Z,3.27
2018-11-27T09:55:17.139Z,3.26
2018-11-27T09:57:45.875Z,3.48
2018-11-27T10:00:35.203Z,3.59
2018-11-27T10:03:06.876Z,3.64
2018-11-27T10:05:35.877Z,3.61
2018-11-27T10:08:05.633Z,3.62
2018-11-27T10:10:34.792Z,3.56
2018-11-27T10:13:04.417Z,3.55
2018-11-27T10:15:33.338Z,3.33
2018-11-27T10:18:02.904Z,3.30
2018-11-27T10:20:42.814Z,3.35
2018-11-27T10:23:13.656Z,3.04
2018-11-27T10:25:43.522Z,3.08
2018-11-27T10:28:12.124Z,2.94
2018-11-27T10:30:40.697Z,2.99
2018-11-27T10:33:10.422Z,3.27
2018-11-27T10:35:54.204Z,3.37
2018-11-27T10:38:22.845Z,3.48
2018-11-27T10:40:51.882Z,3.42
2018-11-27T10:43:20.440Z,3.39
2018-11-27T10:45:49.079Z,3.45
2018-11-27T10:48:17.819Z,3.20
2018-11-27T10:50:46.366Z,3.42
2018-11-27T10:53:14.937Z,3.16
2018-11-27T10:55:44.291Z,3.30
2018-11-27T10:58:12.825Z,3.48
2018-11-27T11:00:47.040Z,3.41
2018-11-27T11:03:46.369Z,3.30
2018-11-27T11:06:14.951Z,3.42
2018-11-27T11:08:43.550Z,3.25
2018-11-27T11:11:12.216Z,3.37
2018-11-27T11:13:40.814Z,3.19
2018-11-27T11:16:09.427Z,3.26
2018-11-27T11:18:37.996Z,3.38
2018-11-27T11:21:07.225Z,3.50
2018-11-27T11:23:35.843Z,3.47
2018-11-27T11:26:04.590Z,3.34
2018-11-27T11:28:33.455Z,3.41
2018-11-27T11:31:02.132Z,3.55
2018-11-27T11:33:31.318Z,3.34
2018-11-27T11:35:59.951Z,3.38
2018-11-27T11:38:28.525Z,3.37
2018-11-27T11:40:57.067Z,3.46
2018-11-27T11:43:25.710Z,3.32
2018-11-27T11:45:55.434Z,3.77
2018-11-27T11:48:24.052Z,3.53
2018-11-27T11:50:52.602Z,3.49
2018-11-27T11:53:21.250Z,3.40
2018-11-27T11:55:50.649Z,3.56
2018-11-27T11:58:19.412Z,3.65
2018-11-27T12:00:55.074Z,3.59
2018-11-27T12:03:23.622Z,3.68
2018-11-27T12:05:52.207Z,3.75
2018-11-27T12:08:20.772Z,3.83
2018-11-27T12:10:49.432Z,3.73
2018-11-27T12:13:18.204Z,3.74
2018-11-27T12:15:47.236Z,3.56
2018-11-27T12:18:15.918Z,3.58
2018-11-27T12:20:45.261Z,3.71
2018-11-27T12:23:13.998Z,3.72
2018-11-27T12:25:42.560Z,3.77
2018-11-27T12:28:14.677Z,3.88
2018-11-27T12:30:40.039Z,3.70
2018-11-27T12:33:11.551Z,3.70
2018-11-27T12:35:40.175Z,3.77
2018-11-27T12:38:09.694Z,3.63
2018-11-27T12:40:38.331Z,3.64
2018-11-27T12:43:07.331Z,3.79
2018-11-27T12:45:35.942Z,3.78
2018-11-27T12:48:04.783Z,3.85
2018-11-27T12:50:41.722Z,3.76
2018-11-27T12:53:16.544Z,3.61
2018-11-27T12:55:41.727Z,3.78
2018-11-27T12:58:11.002Z,3.78
2018-11-27T13:00:40.226Z,3.78
2018-11-27T13:03:09.382Z,3.84
2018-11-27T13:05:40.259Z,3.84
2018-11-27T13:08:12.201Z,3.88
2018-11-27T13:10:40.803Z,3.88
2018-11-27T13:13:09.415Z,3.77
2018-11-27T13:15:39.178Z,3.79
2018-11-27T13:18:09.149Z,3.54
2018-11-27T13:20:39.441Z,3.62
2018-11-27T13:23:08.583Z,3.67
2018-11-27T13:25:38.170Z,3.70
2018-11-27T13:28:08.266Z,3.74
2018-11-27T13:31:10.439Z,3.53
2018-11-27T13:33:59.434Z,3.67
2018-11-27T13:36:28.001Z,3.77
2018-11-27T13:39:06.575Z,3.80
2018-11-27T13:41:35.124Z,3.96
2018-11-27T13:44:03.759Z,3.88
2018-11-27T13:46:36.240Z,4.04
2018-11-27T13:49:04.995Z,3.95
2018-11-27T13:51:40.282Z,3.92
2018-11-27T13:54:09.610Z,3.83
2018-11-27T13:56:38.158Z,3.77
2018-11-27T13:59:06.946Z,3.66
2018-11-27T14:01:37.748Z,3.63
2018-11-27T14:04:04.340Z,3.71
2018-11-27T14:06:32.983Z,3.80
2018-11-27T14:09:01.918Z,3.86
2018-11-27T14:11:30.481Z,3.77
2018-11-27T14:13:59.065Z,3.76
2018-11-27T14:16:27.695Z,3.83
2018-11-27T14:18:56.482Z,3.92
2018-11-27T14:21:25.103Z,3.92
2018-11-27T14:23:53.942Z,3.80
2018-11-27T14:26:23.149Z,3.99
2018-11-27T14:28:51.698Z,3.82
2018-11-27T14:31:20.241Z,3.82
2018-11-27T14:33:48.896Z,3.78
2018-11-27T14:36:17.486Z,3.78
2018-11-27T14:38:46.151Z,3.81
2018-11-27T14:41:14.728Z,3.74
2018-11-27T14:43:43.295Z,3.62
2018-11-27T14:46:11.850Z,3.71
2018-11-27T14:48:40.427Z,3.69
2018-11-27T14:51:08.966Z,3.70
2018-11-27T14:53:37.672Z,3.71
2018-11-27T14:56:07.042Z,3.79
2018-11-27T14:58:35.754Z,3.63
2018-11-27T15:01:04.323Z,3.66
2018-11-27T15:03:32.983Z,3.64
2018-11-27T15:06:01.613Z,3.68
2018-11-27T15:08:30.899Z,3.67
2018-11-27T15:10:59.518Z,3.74
2018-11-27T15:13:28.699Z,3.75
2018-11-27T15:15:57.359Z,3.72
2018-11-27T15:18:25.923Z,3.59
2018-11-27T15:20:55.081Z,3.68
2018-11-27T15:23:23.652Z,3.68
2018-11-27T15:25:53.249Z,3.74
2018-11-27T15:28:22.202Z,3.57
2018-11-27T15:30:50.774Z,3.62
2018-11-27T15:33:19.854Z,3.47
2018-11-27T15:35:48.729Z,3.54
2018-11-27T15:38:17.510Z,3.55
2018-11-27T15:40:46.559Z,3.56
2018-11-27T15:43:15.812Z,3.67
2018-11-27T15:45:44.407Z,3.40
2018-11-27T15:48:13.005Z,3.52
2018-11-27T15:50:41.521Z,3.43
2018-11-27T15:53:10.143Z,3.55
2018-11-27T15:55:39.841Z,3.64
2018-11-27T15:58:11.755Z,3.60
2018-11-27T16:00:41.003Z,3.58
2018-11-27T16:03:09.736Z,3.60
2018-11-27T16:05:39.198Z,3.64
2018-11-27T16:08:08.582Z,3.63
2018-11-27T16:10:37.964Z,3.54
2018-11-27T16:13:07.466Z,3.56
2018-11-27T16:15:37.032Z,3.53
2018-11-27T16:18:06.076Z,3.53
2018-11-27T16:20:34.628Z,3.50
2018-11-27T16:23:03.196Z,3.57
2018-11-27T16:25:32.608Z,3.60
2018-11-27T16:28:03.520Z,3.44
2018-11-27T16:30:34.447Z,3.53
2018-11-27T16:33:04.551Z,3.57
2018-11-27T16:35:34.175Z,3.53
2018-11-27T16:38:05.551Z,3.38
2018-11-27T16:40:39.003Z,3.49
2018-11-27T16:43:09.236Z,3.64
2018-11-27T16:45:40.009Z,3.43
2018-11-27T16:48:12.226Z,3.48
2018-11-27T16:50:42.918Z,3.48
2018-11-27T16:53:13.518Z,3.47
2018-11-27T16:55:44.418Z,3.49
2018-11-27T16:58:15.175Z,3.45
2018-11-27T17:00:45.883Z,3.41
2018-11-27T17:03:17.349Z,3.46
2018-11-27T17:05:47.631Z,3.49
2018-11-27T17:08:18.687Z,3.49
2018-11-27T17:10:49.897Z,3.42
2018-11-27T17:13:21.245Z,3.34
2018-11-27T17:15:50.881Z,3.43
2018-11-27T17:18:21.375Z,3.37
2018-11-27T17:20:51.100Z,3.17
2018-11-27T17:23:21.005Z,3.16
2018-11-27T17:25:50.314Z,3.27
2018-11-27T17:28:22.608Z,3.40
2018-11-27T17:31:01.495Z,3.51
2018-11-27T17:33:37.362Z,3.49
2018-11-27T17:36:08.888Z,3.29
2018-11-27T17:38:38.996Z,3.13
2018-11-27T17:41:09.065Z,3.25
2018-11-27T17:43:38.991Z,3.13
2018-11-27T17:46:09.011Z,3.09
2018-11-27T17:48:38.999Z,2.96
2018-11-27T17:51:09.035Z,3.04
2018-11-27T17:53:38.937Z,3.15
2018-11-27T17:56:09.054Z,3.13
2018-11-27T17:58:40.002Z,3.10
2018-11-27T18:01:09.963Z,3.03
2018-11-27T18:03:40.123Z,2.91
2018-11-27T18:06:09.046Z,2.77
2018-11-27T18:08:39.831Z,2.79
2018-11-27T18:11:09.571Z,2.89
2018-11-27T18:13:38.409Z,2.91
2018-11-27T18:16:09.240Z,2.87
2018-11-27T18:18:39.705Z,2.98
2018-11-27T18:21:10.177Z,3.00
2018-11-27T18:23:39.766Z,2.94
2018-11-27T18:26:11.068Z,2.89
2018-11-27T18:28:42.186Z,2.92
2018-11-27T18:31:12.299Z,2.88
2018-11-27T18:33:44.144Z,2.85
2018-11-27T18:36:16.029Z,3.00
2018-11-27T18:38:47.039Z,3.01
2018-11-27T18:41:17.729Z,2.94
2018-11-27T18:43:48.125Z,2.92
2018-11-27T18:46:18.549Z,2.86
2018-11-27T18:48:48.798Z,2.94
2018-11-27T18:51:19.458Z,2.93
2018-11-27T18:53:54.706Z,2.97
2018-11-27T18:56:21.173Z,2.86
2018-11-27T18:58:52.087Z,2.98
2018-11-27T19:01:22.762Z,2.87
2018-11-27T19:03:54.464Z,2.91
2018-11-27T19:06:25.161Z,2.80
2018-11-27T19:08:54.600Z,2.74
2018-11-27T19:11:25.723Z,2.77
2018-11-27T19:13:54.423Z,2.87
2018-11-27T19:16:23.371Z,3.04
2018-11-27T19:18:52.073Z,3.11
2018-11-27T19:21:20.669Z,2.94
2018-11-27T19:23:58.862Z,3.03
2018-11-27T19:26:39.321Z,2.94
2018-11-27T19:29:11.094Z,2.91
2018-11-27T19:31:50.433Z,2.77
2018-11-27T19:34:33.930Z,2.92
2018-11-27T19:40:27.730Z,3.12
2018-11-27T19:42:58.935Z,2.78
2018-11-27T19:45:37.387Z,3.12
2018-11-27T19:48:15.342Z,2.78
2018-11-27T19:50:57.241Z,2.80
2018-11-27T19:53:30.158Z,2.72
2018-11-27T19:56:01.628Z,2.75
2018-11-27T19:58:30.231Z,2.71
2018-11-27T20:00:58.764Z,2.71
2018-11-27T20:03:27.364Z,2.76
2018-11-27T20:05:55.975Z,2.92
2018-11-27T20:08:24.984Z,2.71
2018-11-27T20:10:54.620Z,2.69
2018-11-27T20:13:23.406Z,2.83
2018-11-27T20:15:52.014Z,2.86
2018-11-27T20:18:21.374Z,2.94
2018-11-27T20:20:50.986Z,2.91
2018-11-27T20:23:20.642Z,2.89
2018-11-27T20:25:49.433Z,2.98
2018-11-27T20:28:18.378Z,3.03
2018-11-27T20:30:47.683Z,2.99
2018-11-27T20:33:16.234Z,2.86
2018-11-27T20:35:45.691Z,2.82
2018-11-27T20:38:14.628Z,2.66
2018-11-27T20:40:43.510Z,2.93
2018-11-27T20:43:13.605Z,2.96
2018-11-27T20:45:45.774Z,2.92
2018-11-27T20:48:17.998Z,2.99
2018-11-27T20:50:49.558Z,2.88
2018-11-27T20:53:19.055Z,2.90
2018-11-27T20:55:48.108Z,2.80
2018-11-27T20:58:16.713Z,2.70
2018-11-27T21:00:46.956Z,2.71
2018-11-27T21:03:15.630Z,2.71
2018-11-27T21:05:44.283Z,2.83
2018-11-27T21:08:12.915Z,2.80
2018-11-27T21:10:41.467Z,2.65
2018-11-27T21:13:11.779Z,2.66
2018-11-27T21:15:42.710Z,2.80
2018-11-27T21:18:12.182Z,2.69
2018-11-27T21:20:41.833Z,2.63
2018-11-27T21:23:10.610Z,2.76
2018-11-27T21:25:39.202Z,2.74
2018-11-27T21:28:14.242Z,2.78
2018-11-27T21:30:43.592Z,2.81
2018-11-27T21:33:12.732Z,3.08
2018-11-27T21:35:41.538Z,2.93
2018-11-27T21:38:10.211Z,2.91
2018-11-27T21:40:39.154Z,2.57
2018-11-27T21:43:08.759Z,2.45
2018-11-27T21:45:37.951Z,2.46
2018-11-27T21:48:07.343Z,2.46
2018-11-27T21:50:41.832Z,2.47
2018-11-27T21:53:10.999Z,2.31
2018-11-27T21:55:40.639Z,2.48
2018-11-27T21:58:09.991Z,2.48
2018-11-27T22:00:40.001Z,2.28
2018-11-27T22:03:09.587Z,2.21
2018-11-27T22:05:38.165Z,2.31
2018-11-27T22:08:08.119Z,2.16
2018-11-27T22:10:36.878Z,2.29
2018-11-27T22:13:07.336Z,2.17
2018-11-27T22:15:38.198Z,2.19
2018-11-27T22:18:08.274Z,2.16
2018-11-27T22:20:36.962Z,2.23
2018-11-27T22:23:06.612Z,2.08
2018-11-27T22:25:35.315Z,2.26
2018-11-27T22:28:04.533Z,2.22
2018-11-27T22:30:33.371Z,2.04
2018-11-27T22:33:01.951Z,2.15
2018-11-27T22:35:30.527Z,2.13
2018-11-27T22:37:59.298Z,2.12
2018-11-27T22:40:29.861Z,2.05
2018-11-27T22:42:59.154Z,2.08
2018-11-27T22:45:35.213Z,2.13
2018-11-27T22:48:03.824Z,2.08
2018-11-27T22:50:32.550Z,2.12
2018-11-27T22:53:01.229Z,1.93
2018-11-27T22:55:30.374Z,1.87
2018-11-27T22:57:58.936Z,1.76
2018-11-27T23:00:33.630Z,2.00
2018-11-27T23:03:02.434Z,1.82
2018-11-27T23:05:31.001Z,1.91
2018-11-27T23:07:59.997Z,2.05
2018-11-27T23:10:31.063Z,2.06
2018-11-27T23:12:59.637Z,1.82
2018-11-27T23:15:28.237Z,1.76
2018-11-27T23:17:56.919Z,1.63
2018-11-27T23:20:26.023Z,1.70
2018-11-27T23:22:54.596Z,1.62
2018-11-27T23:25:23.239Z,1.53
2018-11-27T23:27:51.938Z,1.61
2018-11-27T23:30:22.507Z,1.59
2018-11-27T23:32:51.078Z,1.52
2018-11-27T23:35:19.595Z,1.49
2018-11-27T23:37:48.206Z,1.39
2018-11-27T23:40:19.874Z,1.33
2018-11-27T23:42:48.773Z,1.40
2018-11-27T23:45:19.772Z,1.30
2018-11-27T23:47:48.389Z,1.19
2018-11-27T23:50:19.101Z,1.29
2018-11-27T23:52:48.373Z,1.41
2018-11-27T23:55:18.019Z,1.14
2018-11-27T23:57:46.936Z,1.07
